Comanche — 9HTY6 — position and weather

sailwx.info

Track history (hours):
 
Tides and Currents Weather Stations Pressure Air Temp Water Temp Dewpoint Dewpoint Depression Visibility Wind Speed Wind Dir Waves Ship Positions

Comanche

Last reported at 2017-Oct-06 02:48 UTC. Time now 2017-Oct-18 11:24 UTC.
Position N 45°31' E 036°45'.
Warning: this ship's position is 12 days out of date.

Length 130 m; draft 2.8 m.

Type: Cargo ship. MMSI: 248855000.

Date/timePositionNaut miles runAvg speedWind from/ knotsBaromVisibWave heightAir tempDewpointWater temp
2017-Oct-06 02:48N 45°31' E 036°45'2 8.0
2017-Oct-06 02:30N 45°29' E 036°43'4 8.6
2017-Oct-06 02:00N 45°25' E 036°41'4 8.2
2017-Oct-06 01:30N 45°21' E 036°39'4 8.7
2017-Oct-06 01:00N 45°19' E 036°34'4 7.7
2017-Oct-06 00:30N 45°17' E 036°29'4 7.7
2017-Oct-05 23:56N 45°13' E 036°29'1 0.3
2017-Oct-05 20:16N 45°13' E 036°31'0 0.0
2017-Oct-05 19:58N 45°13' E 036°31'0 0.0
2017-Oct-05 19:19N 45°13' E 036°31'0 0.0
2017-Oct-05 18:58N 45°13' E 036°31'0 0.0
2017-Oct-05 15:28N 45°13' E 036°31'0 0.0
2017-Oct-05 14:10N 45°13' E 036°31'0 0.0
2017-Oct-05 13:55N 45°13' E 036°31'0 0.0
2017-Oct-05 12:34N 45°13' E 036°31'0 0.0
2017-Oct-05 12:25N 45°13' E 036°31'0 0.0
2017-Oct-05 10:52N 45°13' E 036°31'0 0.0
2017-Oct-05 10:28N 45°13' E 036°31'0 0.0
2017-Oct-05 09:58N 45°13' E 036°31'0 0.0
2017-Oct-05 09:28N 45°13' E 036°31'0 0.0
2017-Oct-05 08:52N 45°13' E 036°31'0 0.0
2017-Oct-05 08:22N 45°13' E 036°31'0 0.0
2017-Oct-05 07:58N 45°13' E 036°30'0 0.0
2017-Oct-05 07:28N 45°13' E 036°31'0 0.0
2017-Oct-05 06:46N 45°13' E 036°31'0 0.0
2017-Oct-05 06:28N 45°13' E 036°31'0 0.0
2017-Oct-05 05:52N 45°13' E 036°31'0 0.1
2017-Oct-05 05:28N 45°13' E 036°31'0 0.0
2017-Oct-05 04:58N 45°13' E 036°31'0 0.0
2017-Oct-05 04:28N 45°13' E 036°31'0 0.0
2017-Oct-05 03:56N 45°13' E 036°31'  
Track history (hours):
 
Tides and Currents Weather Stations Pressure Air Temp Water Temp Dewpoint Dewpoint Depression Visibility Wind Speed Wind Dir Waves Ship Positions

Comanche

Last reported at 2017-Oct-06 02:48 UTC. Time now 2017-Oct-18 11:24 UTC.
Position N 45°31' E 036°45'.
Warning: this ship's position is 12 days out of date.

Length 130 m; draft 2.8 m.

Type: Cargo ship. MMSI: 248855000.

Date/timePositionNaut miles runAvg speedWind from/ knotsBaromVisibWave heightAir tempDewpointWater temp
2017-Oct-06 02:48N 45°31' E 036°45'2 8.0
2017-Oct-06 02:30N 45°29' E 036°43'4 8.6
2017-Oct-06 02:00N 45°25' E 036°41'4 8.2
2017-Oct-06 01:30N 45°21' E 036°39'4 8.7
2017-Oct-06 01:00N 45°19' E 036°34'4 7.7
2017-Oct-06 00:30N 45°17' E 036°29'4 7.7
2017-Oct-05 23:56N 45°13' E 036°29'1 0.3
2017-Oct-05 20:16N 45°13' E 036°31'0 0.0
2017-Oct-05 19:58N 45°13' E 036°31'0 0.0
2017-Oct-05 19:19N 45°13' E 036°31'0 0.0
2017-Oct-05 18:58N 45°13' E 036°31'0 0.0
2017-Oct-05 15:28N 45°13' E 036°31'0 0.0
2017-Oct-05 14:10N 45°13' E 036°31'0 0.0
2017-Oct-05 13:55N 45°13' E 036°31'0 0.0
2017-Oct-05 12:34N 45°13' E 036°31'0 0.0
2017-Oct-05 12:25N 45°13' E 036°31'0 0.0
2017-Oct-05 10:52N 45°13' E 036°31'0 0.0
2017-Oct-05 10:28N 45°13' E 036°31'0 0.0
2017-Oct-05 09:58N 45°13' E 036°31'0 0.0
2017-Oct-05 09:28N 45°13' E 036°31'0 0.0
2017-Oct-05 08:52N 45°13' E 036°31'0 0.0
2017-Oct-05 08:22N 45°13' E 036°31'0 0.0
2017-Oct-05 07:58N 45°13' E 036°30'0 0.0
2017-Oct-05 07:28N 45°13' E 036°31'0 0.0
2017-Oct-05 06:46N 45°13' E 036°31'0 0.0
2017-Oct-05 06:28N 45°13' E 036°31'0 0.0
2017-Oct-05 05:52N 45°13' E 036°31'0 0.1
2017-Oct-05 05:28N 45°13' E 036°31'0 0.0
2017-Oct-05 04:58N 45°13' E 036°31'0 0.0
2017-Oct-05 04:28N 45°13' E 036°31'0 0.0
2017-Oct-05 03:56N 45°13' E 036°31'  

Dump ship's entire track history